createdAt,value
2022-10-20T00:05:00.916Z,11.50
2022-10-20T00:10:02.950Z,11.48
2022-10-20T00:15:05.197Z,10.73
2022-10-20T00:20:07.609Z,9.25
2022-10-20T00:25:09.752Z,10.02
2022-10-20T00:30:11.997Z,11.50
2022-10-20T00:35:14.036Z,9.70
2022-10-20T00:40:16.115Z,9.73
2022-10-20T00:45:20.116Z,8.88
2022-10-20T00:50:23.884Z,11.43
2022-10-20T00:55:27.497Z,9.05
2022-10-20T01:00:30.089Z,10.02
2022-10-20T01:05:32.229Z,12.23
2022-10-20T01:10:40.071Z,12.00
2022-10-20T01:15:42.130Z,14.43
2022-10-20T01:20:51.737Z,11.02
2022-10-20T01:26:11.749Z,8.05
2022-10-20T01:31:22.969Z,13.75
2022-10-20T01:36:34.361Z,8.68
2022-10-20T01:42:12.009Z,9.80
2022-10-20T01:47:14.919Z,9.60
2022-10-20T01:52:16.998Z,13.80
2022-10-20T01:57:22.173Z,11.82
2022-10-20T02:02:42.950Z,9.05
2022-10-20T02:07:45.098Z,10.50
2022-10-20T02:12:49.914Z,8.57
2022-10-20T02:17:54.044Z,11.85
2022-10-20T02:22:56.855Z,10.40
2022-10-20T02:33:07.797Z,9.77
2022-10-20T02:38:09.850Z,9.15
2022-10-20T02:43:12.004Z,7.75
2022-10-20T02:48:14.128Z,10.65
2022-10-20T02:53:16.291Z,9.45
2022-10-20T02:58:18.413Z,8.32
2022-10-20T03:03:20.544Z,7.32
2022-10-20T03:08:23.056Z,5.90
2022-10-20T03:13:25.138Z,6.95
2022-10-20T03:18:27.445Z,7.53
2022-10-20T03:23:29.501Z,6.30
2022-10-20T03:28:31.593Z,6.72
2022-10-20T03:33:33.628Z,7.07
2022-10-20T03:38:35.727Z,7.15
2022-10-20T03:43:39.499Z,6.38
2022-10-20T03:48:42.057Z,5.43
2022-10-20T03:53:45.045Z,5.90
2022-10-20T03:58:47.455Z,5.80
2022-10-20T04:03:49.487Z,8.18
2022-10-20T04:08:51.733Z,6.47
2022-10-20T04:13:54.169Z,6.72
2022-10-20T04:18:56.759Z,6.90
2022-10-20T04:23:58.849Z,5.72
2022-10-20T04:29:01.041Z,5.20
2022-10-20T04:34:03.210Z,5.25
2022-10-20T04:39:08.753Z,7.50
2022-10-20T04:44:10.812Z,4.85
2022-10-20T04:49:12.896Z,6.15
2022-10-20T04:54:15.032Z,7.10
2022-10-20T04:59:17.282Z,8.73
2022-10-20T05:04:21.724Z,7.22
2022-10-20T05:09:23.907Z,5.30
2022-10-20T05:14:25.988Z,6.55
2022-10-20T05:19:28.162Z,4.60
2022-10-20T05:24:30.366Z,6.93
2022-10-20T05:29:32.472Z,6.35
2022-10-20T05:34:34.770Z,7.68
2022-10-20T05:39:36.897Z,6.38
2022-10-20T05:44:39.073Z,5.10
2022-10-20T05:49:41.186Z,9.95
2022-10-20T05:54:43.256Z,4.88
2022-10-20T05:59:45.421Z,3.88
2022-10-20T06:04:47.570Z,4.78
2022-10-20T06:09:49.702Z,5.38
2022-10-20T06:14:51.827Z,6.22
2022-10-20T06:19:54.161Z,4.53
2022-10-20T06:24:56.261Z,4.55
2022-10-20T06:29:58.345Z,5.43
2022-10-20T06:35:00.383Z,6.00
2022-10-20T06:40:02.543Z,4.18
2022-10-20T06:45:04.906Z,4.32
2022-10-20T06:50:07.290Z,4.60
2022-10-20T06:55:09.637Z,5.80
2022-10-20T07:00:11.991Z,5.03
2022-10-20T07:05:14.183Z,4.45
2022-10-20T07:10:16.232Z,5.20
2022-10-20T07:15:18.376Z,5.03
2022-10-20T07:20:20.401Z,4.97
2022-10-20T07:25:22.451Z,4.35
2022-10-20T07:30:24.689Z,5.82
2022-10-20T07:35:26.730Z,6.03
2022-10-20T07:40:28.925Z,7.43
2022-10-20T07:45:31.052Z,6.50
2022-10-20T07:50:33.861Z,9.20
2022-10-20T07:55:38.972Z,4.30
2022-10-20T08:00:41.432Z,7.03
2022-10-20T08:05:43.511Z,5.25
2022-10-20T08:10:45.888Z,4.78
2022-10-20T08:15:54.167Z,9.02
2022-10-20T08:21:06.010Z,6.75
2022-10-20T08:26:11.393Z,8.52
2022-10-20T08:31:13.769Z,6.93
2022-10-20T08:36:16.175Z,6.25
2022-10-20T08:41:23.353Z,6.72
2022-10-20T08:46:31.208Z,5.47
2022-10-20T08:51:37.069Z,5.55
2022-10-20T08:56:39.201Z,7.85
2022-10-20T09:01:41.333Z,6.72
2022-10-20T09:06:44.907Z,7.70
2022-10-20T09:11:47.507Z,6.70
2022-10-20T09:16:59.698Z,6.57
2022-10-20T09:22:05.293Z,5.93
2022-10-20T09:27:19.428Z,7.25
2022-10-20T09:32:56.739Z,8.38
2022-10-20T09:37:58.972Z,6.30
2022-10-20T09:43:19.273Z,6.43
2022-10-20T09:48:35.781Z,11.45
2022-10-20T09:53:50.997Z,8.48
2022-10-20T09:58:53.613Z,6.85
2022-10-20T10:03:59.935Z,6.25
2022-10-20T10:09:02.752Z,6.07
2022-10-20T10:14:05.517Z,6.32
2022-10-20T10:19:07.719Z,6.88
2022-10-20T10:24:29.477Z,7.28
2022-10-20T10:29:36.382Z,5.65
2022-10-20T10:34:50.012Z,7.28
2022-10-20T10:39:51.683Z,5.90
2022-10-20T10:45:07.425Z,7.20
2022-10-20T10:50:49.666Z,5.32
2022-10-20T10:56:02.619Z,5.65
2022-10-20T11:01:19.673Z,5.82
2022-10-20T11:06:44.860Z,5.35
2022-10-20T11:12:28.461Z,5.97
2022-10-20T11:18:14.793Z,6.75
2022-10-20T11:23:35.227Z,6.70
2022-10-20T11:28:44.416Z,3.88
2022-10-20T11:33:50.574Z,6.50
2022-10-20T11:38:55.085Z,7.30
2022-10-20T11:44:13.602Z,5.10
2022-10-20T11:49:15.558Z,4.22
2022-10-20T11:54:32.561Z,4.53
2022-10-20T12:10:22.046Z,6.07
2022-10-20T12:15:27.791Z,4.13
2022-10-20T12:20:29.368Z,5.83
2022-10-20T12:25:31.029Z,4.55
2022-10-20T12:30:39.068Z,4.32
2022-10-20T12:36:13.885Z,5.50
2022-10-20T12:41:34.788Z,4.35
2022-10-20T12:46:41.909Z,4.90
2022-10-20T12:51:53.355Z,3.22
2022-10-20T12:57:00.106Z,4.60
2022-10-20T13:02:10.842Z,3.72
2022-10-20T13:07:12.661Z,4.45
2022-10-20T13:12:29.117Z,5.82
2022-10-20T13:17:43.384Z,4.60
2022-10-20T13:22:47.637Z,4.78
2022-10-20T13:27:49.816Z,5.43
2022-10-20T13:33:17.838Z,7.15
2022-10-20T13:39:12.436Z,4.78
2022-10-20T13:44:30.538Z,7.35
2022-10-20T13:49:58.301Z,4.35
2022-10-20T13:55:01.121Z,4.23
2022-10-20T14:00:22.414Z,8.13
2022-10-20T14:05:24.979Z,4.03
2022-10-20T14:10:37.242Z,4.82
2022-10-20T14:15:39.210Z,4.18
2022-10-20T14:20:41.834Z,4.60
2022-10-20T14:25:44.741Z,5.75
2022-10-20T14:30:49.157Z,5.25
2022-10-20T14:35:56.954Z,4.75
2022-10-20T14:40:59.714Z,4.47
2022-10-20T14:46:03.192Z,5.75
2022-10-20T14:51:40.184Z,5.75
2022-10-20T14:56:53.246Z,4.68
2022-10-20T15:02:19.101Z,5.25
2022-10-20T15:07:47.878Z,6.03
2022-10-20T15:12:53.026Z,5.40
2022-10-20T15:18:03.818Z,7.38
2022-10-20T15:23:15.869Z,7.18
2022-10-20T15:28:45.068Z,7.40
2022-10-20T15:33:47.226Z,7.72
2022-10-20T15:38:50.249Z,7.40
2022-10-20T15:43:51.931Z,6.07
2022-10-20T15:48:53.662Z,12.98
2022-10-20T15:53:56.468Z,6.95
2022-10-20T15:58:58.357Z,6.30
2022-10-20T16:04:03.086Z,10.75
2022-10-20T16:09:04.967Z,7.82
2022-10-20T16:14:06.839Z,7.07
2022-10-20T16:19:09.066Z,9.18
2022-10-20T16:24:11.474Z,8.15
2022-10-20T16:29:13.168Z,8.27
2022-10-20T16:34:14.857Z,8.68
2022-10-20T16:39:17.326Z,9.70
2022-10-20T16:44:19.105Z,10.10
2022-10-20T16:49:20.777Z,12.52
2022-10-20T16:54:22.516Z,11.27
2022-10-20T16:59:24.240Z,12.32
2022-10-20T17:04:26.506Z,9.93
2022-10-20T17:09:29.908Z,12.00
2022-10-20T17:14:31.651Z,11.98
2022-10-20T17:19:33.280Z,13.65
2022-10-20T17:24:35.040Z,12.45
2022-10-20T17:29:36.777Z,14.27
2022-10-20T17:34:38.394Z,14.63
2022-10-20T17:39:40.134Z,11.50
2022-10-20T17:44:41.778Z,11.98
2022-10-20T17:49:43.442Z,13.70
2022-10-20T17:54:45.139Z,11.90
2022-10-20T17:59:53.980Z,12.20
2022-10-20T18:04:59.387Z,10.93
2022-10-20T18:10:01.203Z,14.40
2022-10-20T18:15:03.392Z,14.57
2022-10-20T18:20:05.549Z,14.68
2022-10-20T18:25:07.880Z,16.52
2022-10-20T18:30:10.036Z,15.52
2022-10-20T18:35:11.717Z,15.10
2022-10-20T18:40:13.402Z,18.23
2022-10-20T18:45:15.480Z,15.30
2022-10-20T18:50:17.232Z,15.82
2022-10-20T18:55:18.893Z,14.57
2022-10-20T19:00:20.666Z,17.40
2022-10-20T19:05:22.297Z,15.57
2022-10-20T19:10:23.956Z,16.38
2022-10-20T19:15:25.572Z,19.83
2022-10-20T19:20:30.074Z,14.95
2022-10-20T19:25:33.276Z,17.88
2022-10-20T19:30:36.082Z,15.88
2022-10-20T19:35:37.680Z,16.35
2022-10-20T19:40:39.332Z,15.13
2022-10-20T19:45:41.013Z,16.38
2022-10-20T19:50:42.697Z,19.05
2022-10-20T19:55:49.854Z,15.20
2022-10-20T20:00:56.004Z,18.13
2022-10-20T20:06:03.004Z,15.70
2022-10-20T20:11:05.857Z,14.88
2022-10-20T20:16:08.680Z,17.13
2022-10-20T20:21:10.601Z,18.30
2022-10-20T20:26:14.020Z,18.42
2022-10-20T20:31:17.767Z,16.30
2022-10-20T20:36:19.513Z,17.67
2022-10-20T20:41:21.399Z,16.50
2022-10-20T20:46:24.785Z,15.63
2022-10-20T20:51:28.795Z,15.57
2022-10-20T20:56:30.786Z,18.20
2022-10-20T21:01:32.391Z,16.27
2022-10-20T21:06:56.650Z,18.42
2022-10-20T21:11:55.934Z,21.73
2022-10-20T21:16:57.707Z,17.15
2022-10-20T21:22:01.177Z,17.52
2022-10-20T21:27:02.938Z,15.52
2022-10-20T21:32:04.792Z,18.75
2022-10-20T21:37:06.516Z,19.92
2022-10-20T21:42:08.206Z,21.52
2022-10-20T21:47:09.926Z,19.02
2022-10-20T21:52:11.762Z,18.52
2022-10-20T21:57:14.569Z,19.00
2022-10-20T22:02:16.570Z,18.27
2022-10-20T22:07:18.373Z,18.13
2022-10-20T22:12:20.860Z,19.90
2022-10-20T22:17:22.537Z,20.70
2022-10-20T22:22:24.294Z,15.10
2022-10-20T22:27:38.372Z,18.42
2022-10-20T22:32:43.853Z,17.60
2022-10-20T22:37:45.574Z,17.02
2022-10-20T22:42:47.390Z,17.92
2022-10-20T22:47:49.150Z,23.55
2022-10-20T22:52:51.043Z,19.98
2022-10-20T22:57:52.880Z,23.52
2022-10-20T23:02:54.799Z,16.65
2022-10-20T23:07:56.646Z,22.60
2022-10-20T23:12:58.386Z,21.85
2022-10-20T23:18:00.207Z,17.85
2022-10-20T23:23:01.908Z,21.33
2022-10-20T23:28:03.760Z,19.52
2022-10-20T23:33:05.521Z,20.83
2022-10-20T23:38:09.964Z,19.17
2022-10-20T23:43:11.581Z,27.70
2022-10-20T23:48:13.673Z,25.27
2022-10-20T23:53:15.333Z,22.15
2022-10-20T23:58:21.881Z,24.23
